Time;durP1;ratioP1;P1;durP2;ratioP2;P2;SDS_P1;SDS_P2;PMS_P1;PMS_P2;Temp;Humidity;BMP_temperature;BMP_pressure;BME280_temperature;BME280_humidity;BME280_pressure;Samples;Min_cycle;Max_cycle;Signal;HPM_P1;HPM_P2
2023/02/02 00:01:36;;;;;;;5.67;1.97;;;6.10;1.00;;;;;;5043043;28;20455;-59
2023/02/02 00:04:03;;;;;;;4.27;1.60;;;6.00;1.00;;;;;;5051746;28;21877;-59
2023/02/02 00:06:30;;;;;;;5.50;1.63;;;5.90;1.00;;;;;;5053942;28;20270;-60
2023/02/02 00:08:57;;;;;;;2.37;1.27;;;5.80;1.00;;;;;;5046091;28;20445;-60
2023/02/02 00:11:24;;;;;;;2.60;1.40;;;5.80;1.00;;;;;;5040517;28;20456;-59
2023/02/02 00:13:49;;;;;;;4.30;1.43;;;5.90;1.00;;;;;;5054696;28;20452;-59
2023/02/02 00:16:27;;;;;;;7.73;1.87;;;5.70;1.00;;;;;;5034778;28;20485;-59
2023/02/02 00:18:59;;;;;;;2.57;1.30;;;5.60;1.00;;;;;;5043047;28;20298;-59
2023/02/02 00:21:25;;;;;;;3.90;1.07;;;5.40;1.00;;;;;;5036495;28;20448;-59
2023/02/02 00:23:51;;;;;;;4.87;1.77;;;5.50;1.00;;;;;;5034633;28;20449;-59
2023/02/02 00:26:17;;;;;;;4.23;1.30;;;5.40;1.00;;;;;;5039770;28;20591;-58
2023/02/02 00:28:43;;;;;;;3.17;1.20;;;5.50;1.00;;;;;;5038905;28;20211;-59
2023/02/02 00:31:10;;;;;;;4.13;1.70;;;5.50;1.00;;;;;;5036656;28;20494;-60
2023/02/02 00:33:36;;;;;;;5.53;1.50;;;5.70;1.00;;;;;;5045775;28;20201;-60
2023/02/02 00:36:02;;;;;;;5.00;1.63;;;5.70;1.00;;;;;;5062007;28;20795;-58
2023/02/02 00:38:28;;;;;;;7.97;1.80;;;5.70;1.00;;;;;;5058488;28;20220;-59
2023/02/02 00:40:54;;;;;;;3.10;1.40;;;5.70;1.00;;;;;;5053836;28;20424;-59
2023/02/02 00:43:19;;;;;;;6.60;1.93;;;5.70;1.00;;;;;;5059966;28;20538;-59
2023/02/02 00:45:45;;;;;;;4.07;1.60;;;5.70;1.00;;;;;;5055758;28;20236;-58
2023/02/02 00:48:11;;;;;;;4.70;2.17;;;5.70;1.00;;;;;;5048874;28;20190;-58
2023/02/02 00:50:36;;;;;;;6.53;1.50;;;6.10;1.00;;;;;;5044103;28;20195;-59
2023/02/02 00:53:02;;;;;;;8.20;2.10;;;5.80;1.00;;;;;;5049074;28;20237;-59
2023/02/02 00:55:28;;;;;;;6.63;1.70;;;5.70;1.00;;;;;;5055210;28;20244;-59
2023/02/02 00:57:53;;;;;;;4.17;1.70;;;5.80;1.00;;;;;;5062404;28;20475;-59
2023/02/02 01:00:22;;;;;;;4.33;1.50;;;5.90;1.00;;;;;;5052738;28;20242;-58
2023/02/02 01:02:49;;;;;;;6.87;1.30;;;5.80;1.00;;;;;;5051642;28;20202;-59
2023/02/02 01:05:15;;;;;;;4.60;1.43;;;5.80;1.00;;;;;;5055096;28;20455;-59
2023/02/02 01:07:41;;;;;;;3.80;1.70;;;5.80;1.00;;;;;;5050632;28;20463;-59
2023/02/02 01:10:12;;;;;;;4.80;1.60;;;5.80;1.00;;;;;;5051985;28;20455;-60
2023/02/02 01:12:38;;;;;;;8.13;2.13;;;5.80;1.00;;;;;;5058645;28;20453;-59
2023/02/02 01:15:04;;;;;;;6.40;3.17;;;5.80;1.00;;;;;;5048514;28;20458;-59
2023/02/02 01:17:30;;;;;;;4.73;1.40;;;5.80;1.00;;;;;;5045020;28;20242;-60
2023/02/02 01:19:55;;;;;;;4.00;1.73;;;5.80;1.00;;;;;;5043228;28;20441;-59
2023/02/02 01:22:21;;;;;;;3.97;1.60;;;5.80;1.00;;;;;;5055231;28;20191;-60
2023/02/02 01:24:47;;;;;;;9.67;2.03;;;5.70;1.00;;;;;;5052209;28;20178;-59
2023/02/02 01:27:12;;;;;;;5.27;2.07;;;5.70;1.00;;;;;;5046526;28;20190;-60
2023/02/02 01:29:38;;;;;;;5.17;1.63;;;5.70;1.00;;;;;;5058811;28;20204;-59
2023/02/02 01:32:04;;;;;;;8.13;1.63;;;5.80;1.00;;;;;;5047705;28;20576;-59
2023/02/02 01:34:29;;;;;;;7.30;2.20;;;5.70;1.00;;;;;;5047534;28;20192;-58
2023/02/02 01:36:55;;;;;;;3.73;1.83;;;5.80;1.00;;;;;;5048591;28;20444;-58
2023/02/02 01:39:21;;;;;;;9.93;1.73;;;5.90;1.00;;;;;;5055826;28;20226;-59
2023/02/02 01:41:47;;;;;;;6.70;1.70;;;5.90;1.00;;;;;;5055003;28;20274;-59
2023/02/02 01:44:50;;;;;;;6.53;2.00;;;5.90;1.00;;;;;;5048085;28;20197;-59
2023/02/02 01:47:16;;;;;;;5.77;2.20;;;5.80;1.00;;;;;;5048280;28;20863;-60
2023/02/02 01:49:42;;;;;;;14.03;2.27;;;5.90;1.00;;;;;;5052412;28;20806;-59
2023/02/02 01:52:09;;;;;;;5.13;1.80;;;5.80;1.00;;;;;;5051965;28;20477;-58
2023/02/02 01:54:40;;;;;;;4.70;1.47;;;5.80;1.00;;;;;;5061927;28;20192;-60
2023/02/02 01:57:14;;;;;;;8.43;2.53;;;5.90;1.00;;;;;;5051090;28;20438;-59
2023/02/02 01:59:42;;;;;;;3.80;1.37;;;5.80;1.00;;;;;;5049594;28;20441;-59
2023/02/02 02:02:07;;;;;;;4.63;2.07;;;5.80;1.00;;;;;;5040524;28;20456;-59
2023/02/02 02:04:34;;;;;;;6.43;1.97;;;5.70;1.00;;;;;;5053775;28;20447;-59
2023/02/02 02:07:01;;;;;;;4.60;1.47;;;5.70;1.00;;;;;;5049015;28;20190;-58
2023/02/02 02:09:27;;;;;;;6.57;1.97;;;5.70;1.00;;;;;;5044681;28;20907;-58
2023/02/02 02:11:53;;;;;;;6.33;1.93;;;5.80;1.00;;;;;;5043203;28;20502;-59
2023/02/02 02:17:10;;;;;;;5.10;1.33;;;5.90;1.00;;;;;;5037877;28;20448;-59
2023/02/02 02:26:52;;;;;;;6.63;1.80;;;5.80;1.00;;;;;;5034727;28;20457;-58
2023/02/02 02:29:39;;;;;;;9.40;2.27;;;5.80;1.00;;;;;;5040515;28;20459;-59
2023/02/02 02:32:26;;;;;;;2.73;1.20;;;5.80;1.00;;;;;;5047731;28;20978;-58
2023/02/02 02:35:09;;;;;;;2.83;1.33;;;5.80;1.00;;;;;;5045625;28;20437;-59
2023/02/02 02:37:49;;;;;;;6.70;1.53;;;5.80;1.00;;;;;;5043873;28;20477;-59
2023/02/02 02:40:38;;;;;;;7.03;1.47;;;5.90;1.00;;;;;;5055270;28;20444;-58
2023/02/02 02:43:14;;;;;;;5.27;2.17;;;5.90;1.00;;;;;;5046976;28;20517;-58
2023/02/02 02:45:41;;;;;;;8.17;1.30;;;6.00;1.00;;;;;;5051850;28;20943;-59
2023/02/02 02:48:09;;;;;;;9.73;1.90;;;6.10;1.00;;;;;;5055680;28;20453;-59
2023/02/02 02:50:35;;;;;;;10.13;1.60;;;6.00;1.00;;;;;;5038219;28;20833;-58
2023/02/02 02:53:10;;;;;;;8.73;2.10;;;6.00;1.00;;;;;;5058239;28;20567;-59
2023/02/02 02:56:06;;;;;;;3.90;1.50;;;6.00;1.00;;;;;;5054962;28;20674;-59
2023/02/02 02:58:45;;;;;;;5.03;1.77;;;6.00;1.00;;;;;;5055701;28;20496;-59
2023/02/02 03:01:30;;;;;;;5.50;2.00;;;6.00;1.00;;;;;;5041522;28;20510;-59
2023/02/02 03:04:20;;;;;;;5.33;1.87;;;6.10;1.00;;;;;;5053734;28;20447;-59
2023/02/02 03:07:09;;;;;;;8.27;1.77;;;6.00;1.00;;;;;;5046049;28;20441;-58
2023/02/02 03:09:40;;;;;;;6.10;1.50;;;5.90;1.00;;;;;;5045594;28;20491;-58
2023/02/02 03:12:06;;;;;;;3.90;1.50;;;5.90;1.00;;;;;;5046286;28;20458;-59
2023/02/02 03:14:38;;;;;;;4.73;1.93;;;6.00;1.00;;;;;;5042571;28;20430;-59
2023/02/02 03:17:03;;;;;;;5.03;1.40;;;6.00;1.00;;;;;;5045820;28;20183;-58
2023/02/02 03:19:29;;;;;;;6.10;1.70;;;6.10;1.00;;;;;;5046468;28;20516;-58
2023/02/02 03:21:55;;;;;;;9.53;2.00;;;6.10;1.00;;;;;;5050923;28;20190;-59
2023/02/02 03:24:21;;;;;;;9.77;1.90;;;6.10;1.00;;;;;;5060597;28;20442;-60
2023/02/02 03:26:46;;;;;;;6.77;1.80;;;6.00;1.00;;;;;;5052927;28;20296;-59
2023/02/02 03:29:13;;;;;;;7.13;1.83;;;6.00;1.00;;;;;;5042751;28;20218;-59
2023/02/02 03:31:38;;;;;;;10.97;1.87;;;6.10;1.00;;;;;;5055752;28;20189;-59
2023/02/02 03:34:04;;;;;;;6.17;1.53;;;6.10;1.00;;;;;;5057362;28;20922;-58
2023/02/02 03:36:30;;;;;;;6.70;1.80;;;6.00;1.00;;;;;;5047783;28;20246;-59
2023/02/02 03:38:55;;;;;;;8.00;2.13;;;6.00;1.00;;;;;;5050424;28;20620;-59
2023/02/02 03:41:21;;;;;;;5.63;1.80;;;6.10;1.00;;;;;;5053996;28;20224;-59
2023/02/02 03:43:47;;;;;;;4.80;1.60;;;6.00;1.00;;;;;;5050726;28;20611;-60
2023/02/02 03:46:12;;;;;;;4.80;1.57;;;6.10;1.00;;;;;;5039278;28;20487;-59
2023/02/02 03:48:38;;;;;;;4.13;1.60;;;6.00;1.00;;;;;;5038237;28;20194;-58
2023/02/02 03:51:10;;;;;;;5.83;2.33;;;5.90;1.00;;;;;;5043005;28;20623;-58
2023/02/02 03:53:36;;;;;;;5.43;1.50;;;6.00;1.00;;;;;;5055062;28;20481;-59
2023/02/02 03:56:02;;;;;;;6.10;1.67;;;6.00;1.00;;;;;;5052323;28;20574;-58
2023/02/02 03:58:28;;;;;;;12.63;1.90;;;6.00;1.00;;;;;;5049733;28;20498;-59
2023/02/02 04:01:01;;;;;;;7.30;1.80;;;6.00;1.00;;;;;;5041144;28;20456;-59
2023/02/02 04:03:26;;;;;;;8.30;1.70;;;6.10;1.00;;;;;;5051512;28;20449;-59
2023/02/02 04:05:52;;;;;;;10.70;1.40;;;6.00;1.00;;;;;;5058302;28;20517;-58
2023/02/02 04:08:19;;;;;;;6.17;1.73;;;6.10;1.00;;;;;;5051370;28;20270;-59
2023/02/02 04:10:45;;;;;;;5.93;2.00;;;6.00;1.00;;;;;;5053350;28;20186;-58
2023/02/02 04:13:10;;;;;;;4.23;1.37;;;6.00;1.00;;;;;;5041272;28;20459;-58
2023/02/02 04:15:36;;;;;;;4.53;1.70;;;6.00;1.00;;;;;;5040285;28;20201;-60
2023/02/02 04:18:01;;;;;;;7.00;1.43;;;6.10;1.00;;;;;;5039697;28;20553;-58
2023/02/02 04:20:27;;;;;;;14.00;2.23;;;6.00;1.00;;;;;;5039858;28;20243;-59
2023/02/02 04:22:53;;;;;;;8.23;2.50;;;6.00;1.00;;;;;;5048085;28;20655;-59
2023/02/02 04:25:19;;;;;;;4.50;1.93;;;6.10;1.00;;;;;;5047223;28;20554;-59
2023/02/02 04:27:44;;;;;;;7.13;1.33;;;6.00;1.00;;;;;;5054981;28;20446;-58
2023/02/02 04:30:11;;;;;;;6.80;1.40;;;6.10;1.00;;;;;;5045187;28;21236;-59
2023/02/02 04:32:36;;;;;;;3.43;1.33;;;6.10;1.00;;;;;;5046304;28;20202;-58
2023/02/02 04:35:02;;;;;;;3.77;1.83;;;6.10;1.00;;;;;;5037572;28;20461;-58
2023/02/02 04:37:30;;;;;;;7.20;2.17;;;6.00;1.00;;;;;;5041541;28;20186;-58
2023/02/02 04:39:56;;;;;;;10.27;1.90;;;6.00;1.00;;;;;;5033360;28;20448;-59
2023/02/02 04:42:22;;;;;;;6.93;1.70;;;6.10;1.00;;;;;;5042985;28;20579;-59
2023/02/02 04:44:48;;;;;;;6.10;1.90;;;6.20;1.00;;;;;;5043271;28;20206;-59
2023/02/02 04:47:13;;;;;;;4.07;1.73;;;6.20;1.00;;;;;;5042818;28;20187;-59
2023/02/02 04:49:39;;;;;;;5.17;1.47;;;6.10;1.00;;;;;;5041983;28;20215;-60
2023/02/02 04:52:05;;;;;;;9.53;2.47;;;6.10;1.00;;;;;;5055368;28;21024;-58
2023/02/02 04:54:31;;;;;;;9.33;2.43;;;6.10;1.00;;;;;;5038715;28;20189;-58
2023/02/02 04:56:57;;;;;;;7.07;1.63;;;6.10;1.00;;;;;;5041800;28;20494;-58
2023/02/02 04:59:23;;;;;;;5.80;2.03;;;6.10;1.00;;;;;;5051656;28;20510;-58
2023/02/02 05:01:49;;;;;;;6.87;2.03;;;6.00;1.00;;;;;;5051860;28;20192;-60
2023/02/02 05:04:15;;;;;;;5.87;1.47;;;6.10;1.00;;;;;;5050278;28;20187;-58
2023/02/02 05:06:41;;;;;;;5.10;1.67;;;6.10;1.00;;;;;;5047765;28;20515;-59
2023/02/02 05:09:06;;;;;;;6.33;1.53;;;6.00;1.00;;;;;;5046594;28;20189;-60
2023/02/02 05:11:32;;;;;;;5.03;1.40;;;6.00;1.00;;;;;;5045991;28;20202;-60
2023/02/02 05:13:58;;;;;;;7.80;1.97;;;6.00;1.00;;;;;;5047974;28;20278;-58
2023/02/02 05:16:23;;;;;;;4.40;1.60;;;6.00;1.00;;;;;;5044333;28;20332;-61
2023/02/02 05:18:55;;;;;;;6.13;1.70;;;6.00;1.00;;;;;;5048480;28;20206;-59
2023/02/02 05:21:21;;;;;;;4.20;1.80;;;6.10;1.00;;;;;;5050884;28;20199;-61
2023/02/02 05:23:47;;;;;;;4.70;1.80;;;6.20;1.00;;;;;;5050829;28;20921;-60
2023/02/02 05:26:16;;;;;;;7.67;2.83;;;6.10;1.00;;;;;;5056211;28;20461;-62
2023/02/02 05:28:42;;;;;;;9.17;2.20;;;6.00;1.00;;;;;;5049751;28;20189;-62
2023/02/02 05:31:08;;;;;;;7.43;2.10;;;6.00;1.00;;;;;;5052111;28;20468;-62
2023/02/02 05:33:34;;;;;;;14.03;2.60;;;6.10;1.00;;;;;;5049620;28;20276;-62
2023/02/02 05:36:00;;;;;;;8.97;2.00;;;6.10;1.00;;;;;;5046363;28;20463;-61
2023/02/02 05:38:25;;;;;;;8.87;2.07;;;6.00;1.00;;;;;;5046013;28;20219;-62
2023/02/02 05:40:51;;;;;;;8.70;2.07;;;6.10;1.00;;;;;;5050557;28;20187;-60
2023/02/02 05:43:16;;;;;;;5.07;1.77;;;6.10;1.00;;;;;;5043881;28;20197;-63
2023/02/02 05:45:42;;;;;;;3.07;1.43;;;6.10;1.00;;;;;;5049254;28;20215;-62
2023/02/02 05:48:12;;;;;;;9.13;2.37;;;6.20;1.00;;;;;;5048546;28;20212;-62
2023/02/02 05:50:40;;;;;;;4.27;1.50;;;6.20;1.00;;;;;;5048903;28;20201;-62
2023/02/02 05:53:05;;;;;;;9.20;2.20;;;6.30;1.00;;;;;;5046036;28;20488;-63
2023/02/02 05:55:31;;;;;;;6.77;1.60;;;6.30;1.00;;;;;;5049290;28;20952;-60
2023/02/02 05:57:56;;;;;;;6.97;1.80;;;6.20;1.00;;;;;;5046743;28;20245;-62
2023/02/02 06:00:22;;;;;;;6.97;2.07;;;6.20;1.00;;;;;;5050234;28;20190;-62
2023/02/02 06:02:47;;;;;;;11.50;2.97;;;6.20;1.00;;;;;;5048830;28;20209;-62
2023/02/02 06:05:13;;;;;;;6.43;1.73;;;6.20;1.00;;;;;;5050129;28;20274;-62
2023/02/02 06:07:39;;;;;;;6.20;1.90;;;6.30;1.00;;;;;;5046195;28;20670;-61
2023/02/02 06:10:06;;;;;;;5.90;2.33;;;6.40;1.00;;;;;;5051178;28;20198;-64
2023/02/02 06:12:31;;;;;;;6.87;1.87;;;6.40;1.00;;;;;;5047552;28;20186;-63
2023/02/02 06:14:57;;;;;;;3.80;1.80;;;6.30;1.00;;;;;;5041185;28;20801;-62
2023/02/02 06:17:23;;;;;;;9.63;2.00;;;6.30;1.00;;;;;;5042750;28;20195;-62
2023/02/02 06:19:48;;;;;;;9.50;1.97;;;6.50;1.00;;;;;;5046554;28;20186;-62
2023/02/02 06:22:14;;;;;;;6.47;2.40;;;6.30;1.00;;;;;;5045354;28;20200;-62
2023/02/02 06:24:39;;;;;;;4.73;1.73;;;6.20;1.00;;;;;;5046272;28;20188;-61
2023/02/02 06:27:05;;;;;;;11.90;2.70;;;6.30;1.00;;;;;;5045944;28;20540;-62
2023/02/02 06:29:31;;;;;;;8.77;1.47;;;6.30;1.00;;;;;;5049360;28;20199;-61
2023/02/02 06:31:56;;;;;;;3.90;1.80;;;6.30;1.00;;;;;;5047343;28;20183;-62
2023/02/02 06:34:22;;;;;;;6.40;2.07;;;6.30;1.00;;;;;;5058041;28;20256;-62
2023/02/02 06:36:47;;;;;;;11.80;3.50;;;6.40;1.00;;;;;;5045805;28;20194;-63
2023/02/02 06:39:13;;;;;;;9.73;2.70;;;6.40;1.00;;;;;;5046906;28;20241;-61
2023/02/02 06:41:39;;;;;;;7.47;1.93;;;6.30;1.00;;;;;;5049657;28;20187;-61
2023/02/02 06:44:05;;;;;;;6.03;2.17;;;6.20;1.00;;;;;;5045432;28;20182;-63
2023/02/02 06:46:30;;;;;;;6.67;2.03;;;6.10;1.00;;;;;;5042269;28;20485;-62
2023/02/02 06:48:56;;;;;;;7.50;1.70;;;6.00;1.00;;;;;;5049971;28;20310;-62
2023/02/02 06:51:22;;;;;;;5.43;2.10;;;6.10;1.00;;;;;;5046907;28;20941;-61
2023/02/02 06:53:48;;;;;;;8.77;2.30;;;6.20;1.00;;;;;;5048627;28;20222;-61
2023/02/02 06:56:14;;;;;;;5.23;1.77;;;6.20;1.00;;;;;;5047027;28;20198;-62
2023/02/02 06:58:40;;;;;;;7.40;1.77;;;6.20;1.00;;;;;;5051067;28;20480;-63
2023/02/02 07:01:11;;;;;;;3.77;2.00;;;6.00;1.00;;;;;;5046788;28;20594;-62
2023/02/02 07:03:37;;;;;;;7.73;1.93;;;6.10;1.00;;;;;;5049085;28;20446;-61
2023/02/02 07:06:13;;;;;;;6.50;1.80;;;6.20;1.00;;;;;;5045481;28;20444;-61
2023/02/02 07:08:39;;;;;;;9.87;2.60;;;6.30;1.00;;;;;;5047931;28;20448;-62
2023/02/02 07:11:04;;;;;;;3.97;1.63;;;6.30;1.00;;;;;;5045943;28;21099;-62
2023/02/02 07:13:30;;;;;;;5.97;2.20;;;6.30;1.00;;;;;;5047159;28;20194;-61
2023/02/02 07:15:57;;;;;;;9.60;2.50;;;6.30;1.00;;;;;;5045911;28;20232;-62
2023/02/02 07:18:24;;;;;;;12.30;2.33;;;6.30;1.00;;;;;;5048904;28;20731;-62
2023/02/02 07:20:49;;;;;;;10.70;2.00;;;6.20;1.00;;;;;;5049886;28;20452;-62
2023/02/02 07:23:15;;;;;;;13.23;2.63;;;6.10;1.00;;;;;;5050529;28;20437;-63
2023/02/02 07:25:40;;;;;;;8.17;2.57;;;6.20;1.00;;;;;;5043730;28;20193;-64
2023/02/02 07:28:06;;;;;;;8.50;2.17;;;6.20;1.00;;;;;;5048558;28;20264;-62
2023/02/02 07:30:32;;;;;;;5.70;1.70;;;6.30;1.00;;;;;;5044389;28;20289;-62
2023/02/02 07:32:59;;;;;;;13.60;3.03;;;6.20;1.00;;;;;;5047965;28;20222;-62
2023/02/02 07:35:25;;;;;;;11.13;3.17;;;6.20;1.00;;;;;;5047356;28;20228;-63
2023/02/02 07:37:54;;;;;;;8.30;2.13;;;6.30;1.00;;;;;;5049702;28;20465;-63
2023/02/02 07:40:21;;;;;;;8.20;2.10;;;6.30;1.00;;;;;;5047922;28;21399;-63
2023/02/02 07:42:47;;;;;;;13.30;2.83;;;6.30;1.00;;;;;;5048712;28;20494;-62
2023/02/02 07:45:13;;;;;;;7.63;2.40;;;6.30;1.00;;;;;;5046339;28;20926;-63
2023/02/02 07:47:39;;;;;;;7.20;2.83;;;6.30;1.00;;;;;;5045273;28;20455;-63
2023/02/02 07:50:05;;;;;;;6.30;2.80;;;6.40;1.00;;;;;;5046640;28;20461;-62
2023/02/02 07:52:30;;;;;;;6.53;2.00;;;6.40;1.00;;;;;;5043287;28;20711;-62
2023/02/02 07:54:56;;;;;;;13.13;2.50;;;6.40;1.00;;;;;;5046929;28;20338;-62
2023/02/02 07:57:22;;;;;;;10.37;2.80;;;6.60;1.00;;;;;;5047073;28;20283;-63
2023/02/02 07:59:49;;;;;;;8.80;3.00;;;6.50;1.00;;;;;;5045208;28;20210;-62
2023/02/02 08:02:15;;;;;;;10.83;2.47;;;6.60;1.00;;;;;;5039726;28;20441;-62
2023/02/02 08:04:41;;;;;;;8.40;2.40;;;6.60;1.00;;;;;;5044895;28;20446;-62
2023/02/02 08:07:06;;;;;;;9.50;2.83;;;6.60;1.00;;;;;;5047398;28;20442;-62
2023/02/02 08:09:32;;;;;;;11.90;3.63;;;6.50;1.00;;;;;;5045933;28;20640;-61
2023/02/02 08:12:00;;;;;;;5.97;1.83;;;6.50;1.00;;;;;;5048208;28;20286;-62
2023/02/02 08:14:26;;;;;;;8.13;1.77;;;6.50;1.00;;;;;;5043932;28;20273;-62
2023/02/02 08:16:52;;;;;;;13.40;2.80;;;6.50;1.00;;;;;;5045720;28;20651;-63
2023/02/02 08:19:17;;;;;;;7.57;2.10;;;6.50;1.00;;;;;;5045578;28;20468;-62
2023/02/02 08:21:43;;;;;;;14.63;2.60;;;6.40;1.00;;;;;;5043076;28;20179;-63
2023/02/02 08:24:08;;;;;;;8.13;1.60;;;6.40;1.00;;;;;;5049288;28;20681;-62
2023/02/02 08:26:34;;;;;;;9.30;2.70;;;6.40;1.00;;;;;;5042511;28;20273;-63
2023/02/02 08:29:04;;;;;;;16.93;2.20;;;6.40;1.00;;;;;;5048137;28;20261;-62
2023/02/02 08:31:33;;;;;;;11.00;2.07;;;6.50;1.00;;;;;;5047933;28;20638;-62
2023/02/02 08:33:58;;;;;;;12.30;2.43;;;6.50;1.00;;;;;;5046291;28;20463;-62
2023/02/02 08:36:26;;;;;;;7.57;2.30;;;6.50;1.00;;;;;;5044122;28;20948;-63
2023/02/02 08:38:52;;;;;;;8.03;3.03;;;6.50;1.00;;;;;;5047877;28;20217;-62
2023/02/02 08:41:20;;;;;;;4.37;1.43;;;6.40;1.00;;;;;;5046555;28;20451;-62
2023/02/02 08:43:46;;;;;;;6.30;2.27;;;6.50;1.00;;;;;;5047656;28;20524;-62
2023/02/02 08:46:13;;;;;;;13.53;3.20;;;6.40;1.00;;;;;;5047851;28;20888;-60
2023/02/02 08:48:39;;;;;;;9.07;2.30;;;6.50;1.00;;;;;;5050230;28;20199;-62
2023/02/02 08:51:06;;;;;;;6.23;2.60;;;6.50;1.00;;;;;;5053143;28;20441;-62
2023/02/02 08:53:32;;;;;;;2.90;1.53;;;6.50;1.00;;;;;;5053083;28;20472;-61
2023/02/02 08:56:08;;;;;;;11.17;2.47;;;6.50;1.00;;;;;;5062329;28;20452;-63
2023/02/02 08:58:34;;;;;;;6.73;1.87;;;6.50;1.00;;;;;;5058094;28;20472;-61
2023/02/02 09:01:08;;;;;;;7.97;2.53;;;6.60;1.00;;;;;;5061278;28;20436;-63
2023/02/02 09:03:34;;;;;;;11.43;2.60;;;6.50;1.00;;;;;;5073355;28;20446;-61
2023/02/02 09:06:05;;;;;;;14.50;2.40;;;6.50;1.00;;;;;;5053949;28;20957;-61
2023/02/02 09:08:32;;;;;;;9.77;2.90;;;6.50;1.00;;;;;;5053688;28;20531;-60
2023/02/02 09:11:03;;;;;;;8.07;2.73;;;6.40;1.00;;;;;;5058076;28;20479;-61
2023/02/02 09:13:28;;;;;;;6.33;2.70;;;6.30;1.00;;;;;;5062234;28;20453;-61
2023/02/02 09:15:58;;;;;;;7.97;2.53;;;6.40;1.00;;;;;;5045243;28;20912;-59
2023/02/02 09:18:24;;;;;;;10.47;2.20;;;6.60;1.00;;;;;;5052574;28;20214;-62
2023/02/02 09:20:50;;;;;;;5.40;2.00;;;6.70;1.00;;;;;;5045615;28;20445;-62
2023/02/02 09:23:17;;;;;;;7.50;2.00;;;6.60;1.00;;;;;;5055607;28;20243;-60
2023/02/02 09:25:43;;;;;;;9.57;2.13;;;6.60;1.00;;;;;;5063168;28;20190;-61
2023/02/02 09:28:09;;;;;;;9.53;2.60;;;6.60;1.00;;;;;;5051167;28;20470;-61
2023/02/02 09:30:34;;;;;;;9.30;2.60;;;6.70;1.00;;;;;;5055806;28;20190;-61
2023/02/02 09:33:00;;;;;;;7.50;2.77;;;6.60;1.00;;;;;;5049023;28;20196;-61
2023/02/02 09:35:25;;;;;;;8.87;2.13;;;6.60;1.00;;;;;;5052698;28;20563;-61
2023/02/02 09:37:51;;;;;;;10.67;2.67;;;6.60;1.00;;;;;;5052751;28;20655;-60
2023/02/02 09:40:18;;;;;;;13.70;4.20;;;6.60;1.00;;;;;;5053315;28;20212;-61
2023/02/02 09:42:57;;;;;;;8.03;2.83;;;6.70;1.00;;;;;;5061322;28;20251;-60
2023/02/02 09:45:36;;;;;;;7.03;2.17;;;6.70;1.00;;;;;;5071483;28;20494;-62
2023/02/02 09:48:18;;;;;;;9.77;2.07;;;6.60;1.00;;;;;;5049007;28;20452;-61
2023/02/02 09:51:11;;;;;;;8.00;2.40;;;6.80;1.00;;;;;;5055055;28;20761;-61
2023/02/02 09:53:41;;;;;;;10.60;2.90;;;6.80;1.00;;;;;;5047109;28;20999;-61
2023/02/02 09:56:17;;;;;;;6.47;2.13;;;6.80;1.00;;;;;;5049411;28;20565;-62
2023/02/02 09:58:52;;;;;;;8.03;2.10;;;6.70;1.00;;;;;;5063325;28;20975;-60
2023/02/02 10:01:25;;;;;;;9.83;2.50;;;6.60;1.00;;;;;;5062893;28;20518;-62
2023/02/02 10:04:06;;;;;;;10.00;2.43;;;6.60;1.00;;;;;;5047679;28;20508;-62
2023/02/02 10:06:42;;;;;;;4.00;2.10;;;6.80;1.00;;;;;;5050070;28;20429;-61
2023/02/02 10:09:38;;;;;;;12.00;2.50;;;6.90;1.00;;;;;;5050040;28;20452;-61
2023/02/02 10:13:03;;;;;;;12.73;4.00;;;6.90;1.00;;;;;;5051001;28;20447;-62
2023/02/02 10:15:40;;;;;;;7.90;2.23;;;6.80;1.00;;;;;;5008989;28;20597;-62
2023/02/02 10:18:43;;;;;;;7.67;2.97;;;6.80;1.00;;;;;;5008491;28;20880;-61
2023/02/02 10:21:19;;;;;;;10.27;2.30;;;6.90;1.00;;;;;;5042656;28;20448;-62
2023/02/02 10:23:45;;;;;;;12.90;2.70;;;6.90;1.00;;;;;;5053959;28;20438;-61
2023/02/02 10:26:44;;;;;;;8.07;2.70;;;6.90;1.00;;;;;;5057122;28;20444;-62
2023/02/02 10:29:16;;;;;;;7.27;2.63;;;6.90;1.00;;;;;;5050901;28;20187;-62
2023/02/02 10:31:53;;;;;;;7.80;3.27;;;6.90;1.00;;;;;;5051144;28;20439;-61
2023/02/02 10:34:36;;;;;;;13.37;2.73;;;6.80;1.00;;;;;;5063291;28;20456;-62
2023/02/02 10:37:05;;;;;;;14.40;3.40;;;6.70;1.00;;;;;;5065959;28;20440;-61
2023/02/02 10:39:46;;;;;;;12.20;2.60;;;6.60;1.00;;;;;;5050083;28;20468;-61
2023/02/02 10:42:14;;;;;;;14.73;2.60;;;6.60;1.00;;;;;;5051183;28;20896;-62
2023/02/02 10:45:02;;;;;;;5.90;2.50;;;6.70;1.00;;;;;;5050685;28;20442;-62
2023/02/02 10:47:30;;;;;;;11.47;3.20;;;6.60;1.00;;;;;;5050128;28;20536;-62
2023/02/02 10:50:11;;;;;;;6.37;3.53;;;6.60;1.00;;;;;;5050597;28;20441;-62
2023/02/02 10:52:40;;;;;;;6.80;2.80;;;6.60;1.00;;;;;;5050195;28;20472;-63
2023/02/02 10:55:09;;;;;;;8.17;2.90;;;6.70;1.00;;;;;;5049639;28;20456;-61
2023/02/02 10:58:03;;;;;;;9.80;2.57;;;6.70;1.00;;;;;;5050539;28;20994;-62
2023/02/02 11:00:37;;;;;;;15.53;3.77;;;6.80;1.00;;;;;;5050522;28;20467;-62
2023/02/02 11:03:05;;;;;;;5.63;2.50;;;6.90;1.00;;;;;;5063358;28;20778;-62
2023/02/02 11:08:35;;;;;;;14.27;3.50;;;7.00;1.00;;;;;;5050459;28;21024;-62
2023/02/02 11:11:20;;;;;;;9.80;3.60;;;7.00;1.00;;;;;;5047220;28;20510;-60
2023/02/02 11:14:07;;;;;;;14.27;2.93;;;7.00;1.00;;;;;;5050443;28;20464;-61
2023/02/02 11:16:34;;;;;;;6.90;2.10;;;6.90;1.00;;;;;;5050317;28;20421;-62
2023/02/02 11:19:00;;;;;;;12.37;2.90;;;7.00;1.00;;;;;;5050020;28;20440;-62
2023/02/02 11:21:33;;;;;;;8.60;2.23;;;6.90;1.00;;;;;;5064796;28;20409;-62
2023/02/02 11:24:23;;;;;;;7.90;2.50;;;6.90;1.00;;;;;;5053675;28;20181;-61
2023/02/02 11:26:56;;;;;;;7.03;3.20;;;6.90;1.00;;;;;;5058103;28;20446;-61
2023/02/02 11:29:36;;;;;;;9.60;2.83;;;7.10;1.00;;;;;;5049870;28;20532;-61
2023/02/02 11:32:32;;;;;;;11.60;2.60;;;7.10;1.00;;;;;;5058240;28;20464;-61
2023/02/02 11:35:07;;;;;;;8.90;3.37;;;7.00;1.00;;;;;;5066607;28;20436;-62
2023/02/02 11:37:37;;;;;;;9.33;2.87;;;7.20;1.00;;;;;;5059206;28;20971;-62
2023/02/02 11:40:26;;;;;;;9.37;2.93;;;7.30;1.00;;;;;;5047256;28;20496;-61
2023/02/02 11:42:54;;;;;;;11.70;3.00;;;7.20;1.00;;;;;;5054223;28;20432;-61
2023/02/02 11:45:33;;;;;;;17.67;3.27;;;7.20;1.00;;;;;;5069549;28;20790;-61
2023/02/02 11:48:12;;;;;;;6.83;2.33;;;7.20;1.00;;;;;;5066714;28;20467;-62
2023/02/02 11:50:43;;;;;;;7.60;2.80;;;7.20;1.00;;;;;;5050465;28;20941;-62
2023/02/02 11:53:38;;;;;;;8.37;2.60;;;7.10;1.00;;;;;;5049485;28;21158;-61
2023/02/02 11:56:09;;;;;;;12.07;2.90;;;7.00;1.00;;;;;;5045820;28;20444;-62
2023/02/02 11:58:45;;;;;;;10.43;3.70;;;7.10;1.00;;;;;;5050567;28;21031;-60
2023/02/02 12:01:30;;;;;;;10.07;3.00;;;7.10;1.00;;;;;;5049211;28;20934;-61
2023/02/02 12:03:58;;;;;;;11.57;2.97;;;6.90;1.00;;;;;;5050813;28;20445;-61
2023/02/02 12:06:25;;;;;;;10.40;2.70;;;7.10;1.00;;;;;;5069116;28;20503;-61
2023/02/02 12:08:57;;;;;;;14.03;3.27;;;7.10;1.00;;;;;;5048996;28;20484;-62
2023/02/02 12:12:04;;;;;;;13.23;3.00;;;7.20;1.00;;;;;;5060147;28;20438;-62
2023/02/02 12:14:53;;;;;;;8.73;2.40;;;7.40;1.00;;;;;;5050975;28;20451;-62
2023/02/02 12:17:40;;;;;;;9.63;2.67;;;7.30;1.00;;;;;;5060569;28;20456;-61
2023/02/02 12:20:51;;;;;;;13.37;3.17;;;7.10;1.00;;;;;;5049025;28;20450;-62
2023/02/02 12:23:37;;;;;;;5.07;2.10;;;7.20;1.00;;;;;;5006032;28;20446;-61
2023/02/02 12:26:27;;;;;;;5.50;1.77;;;7.30;1.00;;;;;;5006144;28;20445;-61
2023/02/02 12:29:36;;;;;;;10.90;3.00;;;7.00;1.00;;;;;;5038999;28;20501;-61
2023/02/02 12:32:22;;;;;;;8.67;2.50;;;7.00;1.00;;;;;;5052861;28;20449;-61
2023/02/02 12:35:03;;;;;;;10.73;3.33;;;7.00;1.00;;;;;;5060439;28;20459;-62
2023/02/02 12:37:37;;;;;;;9.50;2.73;;;7.10;1.00;;;;;;5061018;28;20504;-63
2023/02/02 12:40:18;;;;;;;8.53;2.90;;;7.20;1.00;;;;;;5055246;28;20567;-63
2023/02/02 12:43:03;;;;;;;13.80;4.67;;;7.40;1.00;;;;;;5064541;28;20774;-61
2023/02/02 12:45:31;;;;;;;12.60;3.03;;;7.30;1.00;;;;;;5052626;28;20433;-62
2023/02/02 12:48:18;;;;;;;8.40;2.30;;;7.20;1.00;;;;;;5060355;28;21119;-61
2023/02/02 12:51:05;;;;;;;5.93;2.37;;;7.30;1.00;;;;;;5055587;28;21035;-63
2023/02/02 12:53:49;;;;;;;10.23;2.27;;;7.30;1.00;;;;;;5045787;28;20469;-62
2023/02/02 12:56:54;;;;;;;5.23;2.07;;;7.50;1.00;;;;;;5048816;28;20429;-62
2023/02/02 12:59:46;;;;;;;8.43;2.70;;;7.60;1.00;;;;;;5046377;28;20450;-60
2023/02/02 13:02:33;;;;;;;5.73;1.57;;;7.70;1.00;;;;;;5064172;28;20518;-60
2023/02/02 13:05:36;;;;;;;10.17;2.30;;;7.50;1.00;;;;;;5054629;28;20798;-62
2023/02/02 13:08:13;;;;;;;9.70;2.13;;;7.50;1.00;;;;;;5049053;28;20886;-63
2023/02/02 13:10:43;;;;;;;4.60;1.90;;;7.40;1.00;;;;;;5046868;28;20987;-63
2023/02/02 13:13:17;;;;;;;7.53;2.30;;;7.40;1.00;;;;;;5057984;28;20478;-63
2023/02/02 13:15:47;;;;;;;7.50;1.93;;;7.50;1.00;;;;;;5064417;28;20508;-61
2023/02/02 13:18:30;;;;;;;3.60;1.70;;;7.50;1.00;;;;;;5059831;28;20982;-62
2023/02/02 13:21:02;;;;;;;3.80;1.80;;;7.40;1.00;;;;;;5063181;28;20950;-62
2023/02/02 13:23:33;;;;;;;8.50;2.80;;;4.80;1.00;;;;;;5048924;28;20468;-62
2023/02/02 13:26:16;;;;;;;6.60;1.83;;;7.40;1.00;;;;;;5048184;28;20858;-62
2023/02/02 13:29:08;;;;;;;5.77;1.90;;;7.50;1.00;;;;;;5061181;28;20460;-62
2023/02/02 13:31:42;;;;;;;14.60;1.97;;;7.60;1.00;;;;;;5061427;28;20442;-63
2023/02/02 13:34:53;;;;;;;7.07;2.07;;;7.60;1.00;;;;;;5065407;28;20528;-64
2023/02/02 13:37:53;;;;;;;9.83;2.73;;;7.60;1.00;;;;;;5038674;28;20454;-64
2023/02/02 13:40:31;;;;;;;6.73;1.83;;;7.50;1.00;;;;;;5049552;28;20445;-62